sensor_id;sensor_type;location;lat;lon;timestamp;P1;durP1;ratioP1;P2;durP2;ratioP2
50056;SDS011;36875;49.468;11.200;2022-08-19T00:01:43;17.15;;;14.25;;
50056;SDS011;36875;49.468;11.200;2022-08-19T00:04:12;16.98;;;13.93;;
50056;SDS011;36875;49.468;11.200;2022-08-19T00:06:39;16.23;;;13.73;;
50056;SDS011;36875;49.468;11.200;2022-08-19T00:09:07;14.95;;;13.20;;
50056;SDS011;36875;49.468;11.200;2022-08-19T00:11:34;18.35;;;13.75;;
50056;SDS011;36875;49.468;11.200;2022-08-19T00:14:02;17.00;;;13.93;;
50056;SDS011;36875;49.468;11.200;2022-08-19T00:16:29;16.75;;;13.43;;
50056;SDS011;36875;49.468;11.200;2022-08-19T00:18:57;16.40;;;13.77;;
50056;SDS011;36875;49.468;11.200;2022-08-19T00:21:23;16.38;;;13.18;;
50056;SDS011;36875;49.468;11.200;2022-08-19T00:23:49;16.58;;;13.35;;
50056;SDS011;36875;49.468;11.200;2022-08-19T00:26:15;16.25;;;13.38;;
50056;SDS011;36875;49.468;11.200;2022-08-19T00:28:41;16.83;;;13.30;;
50056;SDS011;36875;49.468;11.200;2022-08-19T00:31:07;17.75;;;13.63;;
50056;SDS011;36875;49.468;11.200;2022-08-19T00:33:34;16.13;;;13.32;;
50056;SDS011;36875;49.468;11.200;2022-08-19T00:36:02;16.50;;;14.05;;
50056;SDS011;36875;49.468;11.200;2022-08-19T00:38:30;17.58;;;13.60;;
50056;SDS011;36875;49.468;11.200;2022-08-19T00:40:56;15.60;;;13.57;;
50056;SDS011;36875;49.468;11.200;2022-08-19T00:43:22;17.00;;;13.93;;
50056;SDS011;36875;49.468;11.200;2022-08-19T00:45:51;15.63;;;13.88;;
50056;SDS011;36875;49.468;11.200;2022-08-19T00:48:17;15.35;;;13.52;;
50056;SDS011;36875;49.468;11.200;2022-08-19T00:50:43;16.20;;;13.50;;
50056;SDS011;36875;49.468;11.200;2022-08-19T00:53:12;18.40;;;14.35;;
50056;SDS011;36875;49.468;11.200;2022-08-19T00:55:42;18.08;;;13.95;;
50056;SDS011;36875;49.468;11.200;2022-08-19T00:58:12;17.05;;;14.20;;
50056;SDS011;36875;49.468;11.200;2022-08-19T01:00:40;17.48;;;13.30;;
50056;SDS011;36875;49.468;11.200;2022-08-19T01:03:06;20.13;;;14.02;;
50056;SDS011;36875;49.468;11.200;2022-08-19T01:05:33;18.70;;;14.73;;
50056;SDS011;36875;49.468;11.200;2022-08-19T01:08:02;15.63;;;13.38;;
50056;SDS011;36875;49.468;11.200;2022-08-19T01:10:31;19.25;;;13.88;;
50056;SDS011;36875;49.468;11.200;2022-08-19T01:13:02;16.08;;;13.85;;
50056;SDS011;36875;49.468;11.200;2022-08-19T01:15:29;18.73;;;14.35;;
50056;SDS011;36875;49.468;11.200;2022-08-19T01:17:57;17.40;;;14.23;;
50056;SDS011;36875;49.468;11.200;2022-08-19T01:20:26;14.93;;;13.32;;
50056;SDS011;36875;49.468;11.200;2022-08-19T01:22:54;14.93;;;13.00;;
50056;SDS011;36875;49.468;11.200;2022-08-19T01:25:22;15.02;;;13.25;;
50056;SDS011;36875;49.468;11.200;2022-08-19T01:27:52;17.20;;;13.93;;
50056;SDS011;36875;49.468;11.200;2022-08-19T01:30:19;15.70;;;13.15;;
50056;SDS011;36875;49.468;11.200;2022-08-19T01:32:48;14.50;;;13.00;;
50056;SDS011;36875;49.468;11.200;2022-08-19T01:35:14;15.63;;;13.55;;
50056;SDS011;36875;49.468;11.200;2022-08-19T01:37:46;16.30;;;13.43;;
50056;SDS011;36875;49.468;11.200;2022-08-19T01:40:15;16.55;;;13.40;;
50056;SDS011;36875;49.468;11.200;2022-08-19T01:42:42;18.52;;;13.55;;
50056;SDS011;36875;49.468;11.200;2022-08-19T01:45:08;20.42;;;14.20;;
50056;SDS011;36875;49.468;11.200;2022-08-19T01:47:34;17.00;;;13.77;;
50056;SDS011;36875;49.468;11.200;2022-08-19T01:50:00;17.20;;;13.07;;
50056;SDS011;36875;49.468;11.200;2022-08-19T01:52:26;15.77;;;13.27;;
50056;SDS011;36875;49.468;11.200;2022-08-19T01:54:52;15.43;;;12.98;;
50056;SDS011;36875;49.468;11.200;2022-08-19T01:57:19;18.10;;;13.60;;
50056;SDS011;36875;49.468;11.200;2022-08-19T01:59:45;16.25;;;12.93;;
50056;SDS011;36875;49.468;11.200;2022-08-19T02:02:11;18.17;;;13.20;;
50056;SDS011;36875;49.468;11.200;2022-08-19T02:04:37;15.05;;;13.00;;
50056;SDS011;36875;49.468;11.200;2022-08-19T02:07:03;14.40;;;12.77;;
50056;SDS011;36875;49.468;11.200;2022-08-19T02:09:30;15.73;;;12.77;;
50056;SDS011;36875;49.468;11.200;2022-08-19T02:11:56;15.45;;;12.43;;
50056;SDS011;36875;49.468;11.200;2022-08-19T02:14:23;17.55;;;13.88;;
50056;SDS011;36875;49.468;11.200;2022-08-19T02:16:49;14.57;;;12.90;;
50056;SDS011;36875;49.468;11.200;2022-08-19T02:19:14;15.25;;;12.43;;
50056;SDS011;36875;49.468;11.200;2022-08-19T02:21:40;15.57;;;13.13;;
50056;SDS011;36875;49.468;11.200;2022-08-19T02:24:06;18.00;;;13.60;;
50056;SDS011;36875;49.468;11.200;2022-08-19T02:26:32;15.48;;;13.02;;
50056;SDS011;36875;49.468;11.200;2022-08-19T02:28:58;18.63;;;13.45;;
50056;SDS011;36875;49.468;11.200;2022-08-19T02:31:26;15.88;;;12.82;;
50056;SDS011;36875;49.468;11.200;2022-08-19T02:33:53;16.52;;;13.52;;
50056;SDS011;36875;49.468;11.200;2022-08-19T02:36:20;17.50;;;13.63;;
50056;SDS011;36875;49.468;11.200;2022-08-19T02:38:46;14.10;;;12.18;;
50056;SDS011;36875;49.468;11.200;2022-08-19T02:41:12;16.00;;;13.65;;
50056;SDS011;36875;49.468;11.200;2022-08-19T02:43:40;16.70;;;13.98;;
50056;SDS011;36875;49.468;11.200;2022-08-19T02:46:11;15.77;;;13.93;;
50056;SDS011;36875;49.468;11.200;2022-08-19T02:48:39;16.02;;;13.05;;
50056;SDS011;36875;49.468;11.200;2022-08-19T02:51:04;15.02;;;13.32;;
50056;SDS011;36875;49.468;11.200;2022-08-19T02:53:30;17.30;;;13.43;;
50056;SDS011;36875;49.468;11.200;2022-08-19T02:55:57;16.00;;;13.73;;
50056;SDS011;36875;49.468;11.200;2022-08-19T02:58:22;18.63;;;13.15;;
50056;SDS011;36875;49.468;11.200;2022-08-19T03:00:49;17.13;;;13.75;;
50056;SDS011;36875;49.468;11.200;2022-08-19T03:03:17;16.35;;;13.55;;
50056;SDS011;36875;49.468;11.200;2022-08-19T03:05:45;16.73;;;13.40;;
50056;SDS011;36875;49.468;11.200;2022-08-19T03:08:11;15.48;;;12.98;;
50056;SDS011;36875;49.468;11.200;2022-08-19T03:10:41;18.33;;;13.52;;
50056;SDS011;36875;49.468;11.200;2022-08-19T03:13:09;15.82;;;12.95;;
50056;SDS011;36875;49.468;11.200;2022-08-19T03:15:38;16.67;;;13.30;;
50056;SDS011;36875;49.468;11.200;2022-08-19T03:18:04;17.92;;;13.52;;
50056;SDS011;36875;49.468;11.200;2022-08-19T03:20:30;14.68;;;12.70;;
50056;SDS011;36875;49.468;11.200;2022-08-19T03:22:57;14.70;;;13.07;;
50056;SDS011;36875;49.468;11.200;2022-08-19T03:25:23;15.90;;;12.95;;
50056;SDS011;36875;49.468;11.200;2022-08-19T03:27:49;15.98;;;13.15;;
50056;SDS011;36875;49.468;11.200;2022-08-19T03:30:15;17.33;;;13.75;;
50056;SDS011;36875;49.468;11.200;2022-08-19T03:32:40;18.13;;;12.63;;
50056;SDS011;36875;49.468;11.200;2022-08-19T03:35:06;18.10;;;13.15;;
50056;SDS011;36875;49.468;11.200;2022-08-19T03:37:32;16.55;;;12.20;;
50056;SDS011;36875;49.468;11.200;2022-08-19T03:39:59;17.13;;;13.40;;
50056;SDS011;36875;49.468;11.200;2022-08-19T03:42:24;14.38;;;12.45;;
50056;SDS011;36875;49.468;11.200;2022-08-19T03:44:52;15.23;;;12.85;;
50056;SDS011;36875;49.468;11.200;2022-08-19T03:47:17;16.27;;;12.23;;
50056;SDS011;36875;49.468;11.200;2022-08-19T03:49:43;16.92;;;13.00;;
50056;SDS011;36875;49.468;11.200;2022-08-19T03:52:09;17.25;;;12.65;;
50056;SDS011;36875;49.468;11.200;2022-08-19T03:54:35;18.38;;;13.32;;
50056;SDS011;36875;49.468;11.200;2022-08-19T03:57:04;16.35;;;12.55;;
50056;SDS011;36875;49.468;11.200;2022-08-19T03:59:33;16.70;;;13.25;;
50056;SDS011;36875;49.468;11.200;2022-08-19T04:02:01;15.25;;;12.77;;
50056;SDS011;36875;49.468;11.200;2022-08-19T04:04:30;16.40;;;12.75;;
50056;SDS011;36875;49.468;11.200;2022-08-19T04:06:56;17.05;;;13.20;;
50056;SDS011;36875;49.468;11.200;2022-08-19T04:09:22;16.75;;;13.10;;
50056;SDS011;36875;49.468;11.200;2022-08-19T04:11:48;15.30;;;12.90;;
50056;SDS011;36875;49.468;11.200;2022-08-19T04:14:17;15.52;;;13.20;;
50056;SDS011;36875;49.468;11.200;2022-08-19T04:16:44;14.35;;;12.50;;
50056;SDS011;36875;49.468;11.200;2022-08-19T04:19:11;15.85;;;12.98;;
50056;SDS011;36875;49.468;11.200;2022-08-19T04:21:38;14.77;;;13.00;;
50056;SDS011;36875;49.468;11.200;2022-08-19T04:24:05;16.10;;;13.57;;
50056;SDS011;36875;49.468;11.200;2022-08-19T04:26:32;17.15;;;12.98;;
50056;SDS011;36875;49.468;11.200;2022-08-19T04:29:00;15.02;;;12.35;;
50056;SDS011;36875;49.468;11.200;2022-08-19T04:31:30;15.25;;;12.13;;
50056;SDS011;36875;49.468;11.200;2022-08-19T04:34:00;14.82;;;12.85;;
50056;SDS011;36875;49.468;11.200;2022-08-19T04:36:28;16.58;;;12.93;;
50056;SDS011;36875;49.468;11.200;2022-08-19T04:38:57;14.55;;;12.32;;
50056;SDS011;36875;49.468;11.200;2022-08-19T04:41:24;15.63;;;11.98;;
50056;SDS011;36875;49.468;11.200;2022-08-19T04:44:09;14.98;;;12.10;;
50056;SDS011;36875;49.468;11.200;2022-08-19T04:46:37;15.35;;;11.98;;
50056;SDS011;36875;49.468;11.200;2022-08-19T04:49:04;15.27;;;12.45;;
50056;SDS011;36875;49.468;11.200;2022-08-19T04:51:31;14.63;;;12.65;;
50056;SDS011;36875;49.468;11.200;2022-08-19T04:53:57;17.23;;;13.32;;
50056;SDS011;36875;49.468;11.200;2022-08-19T04:56:25;16.05;;;13.30;;
50056;SDS011;36875;49.468;11.200;2022-08-19T04:58:52;15.07;;;12.68;;
50056;SDS011;36875;49.468;11.200;2022-08-19T05:01:21;16.33;;;13.70;;
50056;SDS011;36875;49.468;11.200;2022-08-19T05:03:49;17.77;;;13.38;;
50056;SDS011;36875;49.468;11.200;2022-08-19T05:06:17;16.65;;;13.25;;
50056;SDS011;36875;49.468;11.200;2022-08-19T05:08:43;15.98;;;12.48;;
50056;SDS011;36875;49.468;11.200;2022-08-19T05:11:14;15.63;;;13.27;;
50056;SDS011;36875;49.468;11.200;2022-08-19T05:13:41;15.27;;;12.90;;
50056;SDS011;36875;49.468;11.200;2022-08-19T05:16:07;17.05;;;13.40;;
50056;SDS011;36875;49.468;11.200;2022-08-19T05:18:34;15.63;;;12.75;;
50056;SDS011;36875;49.468;11.200;2022-08-19T05:21:19;15.65;;;13.32;;
50056;SDS011;36875;49.468;11.200;2022-08-19T05:24:04;16.48;;;12.95;;
50056;SDS011;36875;49.468;11.200;2022-08-19T05:26:34;18.57;;;13.27;;
50056;SDS011;36875;49.468;11.200;2022-08-19T05:29:00;17.45;;;13.85;;
50056;SDS011;36875;49.468;11.200;2022-08-19T05:31:25;17.10;;;13.20;;
50056;SDS011;36875;49.468;11.200;2022-08-19T05:33:51;16.98;;;13.48;;
50056;SDS011;36875;49.468;11.200;2022-08-19T05:36:16;17.73;;;13.88;;
50056;SDS011;36875;49.468;11.200;2022-08-19T05:38:45;17.10;;;13.48;;
50056;SDS011;36875;49.468;11.200;2022-08-19T05:41:11;17.58;;;13.35;;
50056;SDS011;36875;49.468;11.200;2022-08-19T05:43:38;17.77;;;13.50;;
50056;SDS011;36875;49.468;11.200;2022-08-19T05:46:04;15.98;;;13.48;;
50056;SDS011;36875;49.468;11.200;2022-08-19T05:48:31;15.02;;;13.38;;
50056;SDS011;36875;49.468;11.200;2022-08-19T05:50:57;18.35;;;13.55;;
50056;SDS011;36875;49.468;11.200;2022-08-19T05:53:25;16.75;;;13.85;;
50056;SDS011;36875;49.468;11.200;2022-08-19T05:55:50;17.98;;;14.20;;
50056;SDS011;36875;49.468;11.200;2022-08-19T05:58:16;15.43;;;13.32;;
50056;SDS011;36875;49.468;11.200;2022-08-19T06:00:42;18.25;;;14.43;;
50056;SDS011;36875;49.468;11.200;2022-08-19T06:03:09;17.20;;;13.05;;
50056;SDS011;36875;49.468;11.200;2022-08-19T06:05:35;17.42;;;13.75;;
50056;SDS011;36875;49.468;11.200;2022-08-19T06:08:00;16.50;;;13.45;;
50056;SDS011;36875;49.468;11.200;2022-08-19T06:10:28;17.17;;;12.75;;
50056;SDS011;36875;49.468;11.200;2022-08-19T06:12:55;17.63;;;12.80;;
50056;SDS011;36875;49.468;11.200;2022-08-19T06:15:21;15.43;;;12.85;;
50056;SDS011;36875;49.468;11.200;2022-08-19T06:17:50;14.38;;;12.07;;
50056;SDS011;36875;49.468;11.200;2022-08-19T06:20:16;16.08;;;12.45;;
50056;SDS011;36875;49.468;11.200;2022-08-19T06:22:43;14.50;;;12.35;;
50056;SDS011;36875;49.468;11.200;2022-08-19T06:25:11;15.70;;;11.52;;
50056;SDS011;36875;49.468;11.200;2022-08-19T06:27:40;14.90;;;12.13;;
50056;SDS011;36875;49.468;11.200;2022-08-19T06:30:06;13.52;;;11.48;;
50056;SDS011;36875;49.468;11.200;2022-08-19T06:32:33;13.75;;;11.55;;
50056;SDS011;36875;49.468;11.200;2022-08-19T06:34:58;17.40;;;11.70;;
50056;SDS011;36875;49.468;11.200;2022-08-19T06:37:24;12.80;;;11.20;;
50056;SDS011;36875;49.468;11.200;2022-08-19T06:39:49;17.10;;;11.98;;
50056;SDS011;36875;49.468;11.200;2022-08-19T06:42:16;14.65;;;11.68;;
50056;SDS011;36875;49.468;11.200;2022-08-19T06:44:45;13.73;;;11.10;;
50056;SDS011;36875;49.468;11.200;2022-08-19T06:47:14;13.85;;;10.63;;
50056;SDS011;36875;49.468;11.200;2022-08-19T06:49:41;14.63;;;10.98;;
50056;SDS011;36875;49.468;11.200;2022-08-19T06:52:06;13.15;;;10.10;;
50056;SDS011;36875;49.468;11.200;2022-08-19T06:54:32;13.43;;;10.43;;
50056;SDS011;36875;49.468;11.200;2022-08-19T06:56:59;13.55;;;10.35;;
50056;SDS011;36875;49.468;11.200;2022-08-19T06:59:29;12.68;;;10.73;;
50056;SDS011;36875;49.468;11.200;2022-08-19T07:01:58;13.02;;;9.73;;
50056;SDS011;36875;49.468;11.200;2022-08-19T07:04:27;13.27;;;9.57;;
50056;SDS011;36875;49.468;11.200;2022-08-19T07:06:56;12.68;;;9.63;;
50056;SDS011;36875;49.468;11.200;2022-08-19T07:09:23;11.70;;;9.40;;
50056;SDS011;36875;49.468;11.200;2022-08-19T07:11:49;12.23;;;9.77;;
50056;SDS011;36875;49.468;11.200;2022-08-19T07:14:19;10.95;;;9.23;;
50056;SDS011;36875;49.468;11.200;2022-08-19T07:16:46;12.95;;;9.63;;
50056;SDS011;36875;49.468;11.200;2022-08-19T07:19:14;14.15;;;10.82;;
50056;SDS011;36875;49.468;11.200;2022-08-19T07:21:40;14.40;;;10.55;;
50056;SDS011;36875;49.468;11.200;2022-08-19T07:24:06;11.75;;;10.05;;
50056;SDS011;36875;49.468;11.200;2022-08-19T07:26:40;12.60;;;10.35;;
50056;SDS011;36875;49.468;11.200;2022-08-19T07:29:07;14.50;;;10.23;;
50056;SDS011;36875;49.468;11.200;2022-08-19T07:31:33;13.15;;;9.68;;
50056;SDS011;36875;49.468;11.200;2022-08-19T07:34:02;13.02;;;9.20;;
50056;SDS011;36875;49.468;11.200;2022-08-19T07:36:33;12.07;;;9.40;;
50056;SDS011;36875;49.468;11.200;2022-08-19T07:39:02;17.00;;;9.27;;
50056;SDS011;36875;49.468;11.200;2022-08-19T07:41:30;17.45;;;9.15;;
50056;SDS011;36875;49.468;11.200;2022-08-19T07:43:56;14.02;;;10.10;;
50056;SDS011;36875;49.468;11.200;2022-08-19T07:46:22;15.82;;;10.52;;
50056;SDS011;36875;49.468;11.200;2022-08-19T07:48:48;12.60;;;9.10;;
50056;SDS011;36875;49.468;11.200;2022-08-19T07:51:17;16.77;;;9.70;;
50056;SDS011;36875;49.468;11.200;2022-08-19T07:53:47;12.82;;;8.82;;
50056;SDS011;36875;49.468;11.200;2022-08-19T07:56:15;10.38;;;8.23;;
50056;SDS011;36875;49.468;11.200;2022-08-19T07:58:43;13.07;;;8.85;;
50056;SDS011;36875;49.468;11.200;2022-08-19T08:01:11;15.48;;;8.98;;
50056;SDS011;36875;49.468;11.200;2022-08-19T08:06:25;14.65;;;9.63;;
50056;SDS011;36875;49.468;11.200;2022-08-19T08:09:11;10.35;;;9.00;;
50056;SDS011;36875;49.468;11.200;2022-08-19T08:11:49;13.68;;;9.40;;
50056;SDS011;36875;49.468;11.200;2022-08-19T08:14:17;11.07;;;8.82;;
50056;SDS011;36875;49.468;11.200;2022-08-19T08:16:45;12.10;;;8.65;;
50056;SDS011;36875;49.468;11.200;2022-08-19T08:19:11;12.75;;;9.30;;
50056;SDS011;36875;49.468;11.200;2022-08-19T08:21:39;13.80;;;8.70;;
50056;SDS011;36875;49.468;11.200;2022-08-19T08:24:06;16.77;;;9.43;;
50056;SDS011;36875;49.468;11.200;2022-08-19T08:26:33;12.65;;;9.23;;
50056;SDS011;36875;49.468;11.200;2022-08-19T08:28:59;12.45;;;9.60;;
50056;SDS011;36875;49.468;11.200;2022-08-19T08:31:24;13.55;;;9.48;;
50056;SDS011;36875;49.468;11.200;2022-08-19T08:33:50;14.13;;;9.52;;
50056;SDS011;36875;49.468;11.200;2022-08-19T08:36:16;15.60;;;9.52;;
50056;SDS011;36875;49.468;11.200;2022-08-19T08:38:42;15.90;;;9.90;;
50056;SDS011;36875;49.468;11.200;2022-08-19T08:41:13;15.77;;;10.25;;
50056;SDS011;36875;49.468;11.200;2022-08-19T08:43:49;17.35;;;10.10;;
50056;SDS011;36875;49.468;11.200;2022-08-19T08:46:19;15.48;;;9.05;;
50056;SDS011;36875;49.468;11.200;2022-08-19T08:48:51;13.00;;;8.93;;
50056;SDS011;36875;49.468;11.200;2022-08-19T08:51:22;14.20;;;10.10;;
50056;SDS011;36875;49.468;11.200;2022-08-19T08:53:52;12.52;;;8.98;;
50056;SDS011;36875;49.468;11.200;2022-08-19T08:56:19;11.85;;;8.50;;
50056;SDS011;36875;49.468;11.200;2022-08-19T08:58:48;14.00;;;8.40;;
50056;SDS011;36875;49.468;11.200;2022-08-19T09:01:21;11.23;;;8.70;;
50056;SDS011;36875;49.468;11.200;2022-08-19T09:03:47;12.20;;;8.70;;
50056;SDS011;36875;49.468;11.200;2022-08-19T09:06:14;10.60;;;8.40;;
50056;SDS011;36875;49.468;11.200;2022-08-19T09:08:49;27.02;;;9.35;;
50056;SDS011;36875;49.468;11.200;2022-08-19T09:11:28;11.50;;;8.38;;
50056;SDS011;36875;49.468;11.200;2022-08-19T09:14:05;15.52;;;8.93;;
50056;SDS011;36875;49.468;11.200;2022-08-19T09:16:40;12.63;;;9.05;;
50056;SDS011;36875;49.468;11.200;2022-08-19T09:19:06;13.75;;;9.65;;
50056;SDS011;36875;49.468;11.200;2022-08-19T09:21:33;10.07;;;8.38;;
50056;SDS011;36875;49.468;11.200;2022-08-19T09:23:59;14.10;;;10.27;;
50056;SDS011;36875;49.468;11.200;2022-08-19T09:26:25;16.55;;;10.10;;
50056;SDS011;36875;49.468;11.200;2022-08-19T09:28:51;14.35;;;9.52;;
50056;SDS011;36875;49.468;11.200;2022-08-19T09:31:22;11.07;;;8.48;;
50056;SDS011;36875;49.468;11.200;2022-08-19T09:33:50;10.65;;;8.00;;
50056;SDS011;36875;49.468;11.200;2022-08-19T09:36:17;18.15;;;11.73;;
50056;SDS011;36875;49.468;11.200;2022-08-19T09:38:44;17.42;;;10.95;;
50056;SDS011;36875;49.468;11.200;2022-08-19T09:41:11;15.00;;;10.98;;
50056;SDS011;36875;49.468;11.200;2022-08-19T09:43:38;20.00;;;12.20;;
50056;SDS011;36875;49.468;11.200;2022-08-19T09:46:05;19.95;;;11.52;;
50056;SDS011;36875;49.468;11.200;2022-08-19T09:48:34;20.05;;;11.63;;
50056;SDS011;36875;49.468;11.200;2022-08-19T09:51:03;18.08;;;11.77;;
50056;SDS011;36875;49.468;11.200;2022-08-19T09:53:30;15.60;;;10.85;;
50056;SDS011;36875;49.468;11.200;2022-08-19T09:55:55;19.85;;;11.80;;
50056;SDS011;36875;49.468;11.200;2022-08-19T09:58:21;20.30;;;12.18;;
50056;SDS011;36875;49.468;11.200;2022-08-19T10:00:49;15.75;;;11.68;;
50056;SDS011;36875;49.468;11.200;2022-08-19T10:03:15;16.95;;;11.65;;
50056;SDS011;36875;49.468;11.200;2022-08-19T10:05:41;15.10;;;10.77;;
50056;SDS011;36875;49.468;11.200;2022-08-19T10:08:13;17.15;;;10.45;;
50056;SDS011;36875;49.468;11.200;2022-08-19T10:10:40;18.90;;;10.27;;
50056;SDS011;36875;49.468;11.200;2022-08-19T10:13:08;13.13;;;10.43;;
50056;SDS011;36875;49.468;11.200;2022-08-19T10:15:34;14.93;;;10.90;;
50056;SDS011;36875;49.468;11.200;2022-08-19T10:18:00;19.50;;;11.20;;
50056;SDS011;36875;49.468;11.200;2022-08-19T10:20:26;16.17;;;11.00;;
50056;SDS011;36875;49.468;11.200;2022-08-19T10:22:53;20.13;;;10.80;;
50056;SDS011;36875;49.468;11.200;2022-08-19T10:25:19;16.73;;;10.85;;
50056;SDS011;36875;49.468;11.200;2022-08-19T10:27:45;15.90;;;11.38;;
50056;SDS011;36875;49.468;11.200;2022-08-19T10:30:11;19.20;;;11.73;;
50056;SDS011;36875;49.468;11.200;2022-08-19T10:32:38;21.45;;;13.02;;
50056;SDS011;36875;49.468;11.200;2022-08-19T10:35:04;18.50;;;14.15;;
50056;SDS011;36875;49.468;11.200;2022-08-19T10:37:33;35.58;;;21.60;;
50056;SDS011;36875;49.468;11.200;2022-08-19T10:40:00;64.53;;;43.97;;
50056;SDS011;36875;49.468;11.200;2022-08-19T10:42:27;66.68;;;46.65;;
50056;SDS011;36875;49.468;11.200;2022-08-19T10:44:52;64.13;;;43.28;;
50056;SDS011;36875;49.468;11.200;2022-08-19T10:47:18;49.63;;;34.50;;
50056;SDS011;36875;49.468;11.200;2022-08-19T10:49:44;43.97;;;31.17;;
50056;SDS011;36875;49.468;11.200;2022-08-19T10:52:28;44.40;;;29.08;;
50056;SDS011;36875;49.468;11.200;2022-08-19T10:55:01;35.95;;;21.95;;
50056;SDS011;36875;49.468;11.200;2022-08-19T10:57:47;29.75;;;19.60;;
50056;SDS011;36875;49.468;11.200;2022-08-19T11:00:13;26.77;;;18.73;;
50056;SDS011;36875;49.468;11.200;2022-08-19T11:02:39;25.23;;;18.85;;
50056;SDS011;36875;49.468;11.200;2022-08-19T11:05:05;27.45;;;18.50;;
50056;SDS011;36875;49.468;11.200;2022-08-19T11:07:37;28.60;;;19.10;;
50056;SDS011;36875;49.468;11.200;2022-08-19T11:10:05;26.13;;;18.70;;
50056;SDS011;36875;49.468;11.200;2022-08-19T11:12:36;24.40;;;17.52;;
50056;SDS011;36875;49.468;11.200;2022-08-19T11:15:01;23.60;;;16.25;;
50056;SDS011;36875;49.468;11.200;2022-08-19T11:17:27;24.35;;;17.08;;
50056;SDS011;36875;49.468;11.200;2022-08-19T11:19:56;26.10;;;17.10;;
50056;SDS011;36875;49.468;11.200;2022-08-19T11:22:22;22.10;;;15.93;;
50056;SDS011;36875;49.468;11.200;2022-08-19T11:24:48;22.10;;;16.77;;
50056;SDS011;36875;49.468;11.200;2022-08-19T11:27:14;22.60;;;15.90;;
50056;SDS011;36875;49.468;11.200;2022-08-19T11:29:40;21.17;;;15.45;;
50056;SDS011;36875;49.468;11.200;2022-08-19T11:32:06;20.73;;;15.00;;
50056;SDS011;36875;49.468;11.200;2022-08-19T11:34:34;23.67;;;16.08;;
50056;SDS011;36875;49.468;11.200;2022-08-19T11:37:01;22.35;;;16.08;;
50056;SDS011;36875;49.468;11.200;2022-08-19T11:39:29;23.67;;;15.68;;
50056;SDS011;36875;49.468;11.200;2022-08-19T11:41:57;22.85;;;15.48;;
50056;SDS011;36875;49.468;11.200;2022-08-19T11:44:25;19.52;;;15.50;;
50056;SDS011;36875;49.468;11.200;2022-08-19T11:46:51;18.75;;;14.65;;
50056;SDS011;36875;49.468;11.200;2022-08-19T11:49:18;21.02;;;14.55;;
50056;SDS011;36875;49.468;11.200;2022-08-19T11:51:45;24.08;;;14.45;;
50056;SDS011;36875;49.468;11.200;2022-08-19T11:54:14;23.20;;;14.85;;
50056;SDS011;36875;49.468;11.200;2022-08-19T11:56:41;22.83;;;15.45;;
50056;SDS011;36875;49.468;11.200;2022-08-19T11:59:08;22.98;;;14.70;;
50056;SDS011;36875;49.468;11.200;2022-08-19T12:01:36;23.45;;;14.30;;
50056;SDS011;36875;49.468;11.200;2022-08-19T12:04:02;27.38;;;14.85;;
50056;SDS011;36875;49.468;11.200;2022-08-19T12:06:30;22.38;;;14.43;;
50056;SDS011;36875;49.468;11.200;2022-08-19T12:08:59;23.40;;;14.07;;
50056;SDS011;36875;49.468;11.200;2022-08-19T12:11:27;27.00;;;14.55;;
50056;SDS011;36875;49.468;11.200;2022-08-19T12:13:53;25.25;;;14.30;;
50056;SDS011;36875;49.468;11.200;2022-08-19T12:16:19;28.30;;;15.05;;
50056;SDS011;36875;49.468;11.200;2022-08-19T12:18:49;20.63;;;13.63;;
50056;SDS011;36875;49.468;11.200;2022-08-19T12:21:19;20.50;;;13.70;;
50056;SDS011;36875;49.468;11.200;2022-08-19T12:23:48;18.80;;;12.88;;
50056;SDS011;36875;49.468;11.200;2022-08-19T12:26:15;21.13;;;14.45;;
50056;SDS011;36875;49.468;11.200;2022-08-19T12:28:41;21.17;;;13.25;;
50056;SDS011;36875;49.468;11.200;2022-08-19T12:31:07;20.67;;;13.85;;
50056;SDS011;36875;49.468;11.200;2022-08-19T12:33:33;18.77;;;12.82;;
50056;SDS011;36875;49.468;11.200;2022-08-19T12:36:02;17.63;;;12.90;;
50056;SDS011;36875;49.468;11.200;2022-08-19T12:38:30;18.63;;;13.10;;
50056;SDS011;36875;49.468;11.200;2022-08-19T12:40:57;21.15;;;13.50;;
50056;SDS011;36875;49.468;11.200;2022-08-19T12:43:23;21.25;;;13.85;;
50056;SDS011;36875;49.468;11.200;2022-08-19T12:45:49;18.75;;;12.73;;
50056;SDS011;36875;49.468;11.200;2022-08-19T12:48:14;18.92;;;12.93;;
50056;SDS011;36875;49.468;11.200;2022-08-19T12:50:40;19.65;;;13.75;;
50056;SDS011;36875;49.468;11.200;2022-08-19T12:53:08;20.98;;;13.32;;
50056;SDS011;36875;49.468;11.200;2022-08-19T12:55:34;21.00;;;13.55;;
50056;SDS011;36875;49.468;11.200;2022-08-19T12:57:59;22.98;;;12.88;;
50056;SDS011;36875;49.468;11.200;2022-08-19T13:00:28;22.08;;;12.73;;
50056;SDS011;36875;49.468;11.200;2022-08-19T13:02:54;21.95;;;12.95;;
50056;SDS011;36875;49.468;11.200;2022-08-19T13:05:20;23.45;;;12.68;;
50056;SDS011;36875;49.468;11.200;2022-08-19T13:07:48;19.63;;;12.27;;
50056;SDS011;36875;49.468;11.200;2022-08-19T13:10:17;21.63;;;12.63;;
50056;SDS011;36875;49.468;11.200;2022-08-19T13:12:44;21.00;;;13.30;;
50056;SDS011;36875;49.468;11.200;2022-08-19T13:15:12;18.77;;;12.15;;
50056;SDS011;36875;49.468;11.200;2022-08-19T13:17:39;19.67;;;12.50;;
50056;SDS011;36875;49.468;11.200;2022-08-19T13:20:06;18.05;;;12.45;;
50056;SDS011;36875;49.468;11.200;2022-08-19T13:22:34;20.00;;;12.38;;
50056;SDS011;36875;49.468;11.200;2022-08-19T13:25:02;19.95;;;12.30;;
50056;SDS011;36875;49.468;11.200;2022-08-19T13:27:30;17.02;;;12.02;;
50056;SDS011;36875;49.468;11.200;2022-08-19T13:29:55;16.98;;;12.00;;
50056;SDS011;36875;49.468;11.200;2022-08-19T13:32:39;16.95;;;11.90;;
50056;SDS011;36875;49.468;11.200;2022-08-19T13:35:23;17.77;;;11.70;;
50056;SDS011;36875;49.468;11.200;2022-08-19T13:37:49;16.70;;;12.25;;
50056;SDS011;36875;49.468;11.200;2022-08-19T13:40:16;16.55;;;12.00;;
50056;SDS011;36875;49.468;11.200;2022-08-19T13:42:46;18.38;;;11.63;;
50056;SDS011;36875;49.468;11.200;2022-08-19T13:45:14;17.08;;;11.48;;
50056;SDS011;36875;49.468;11.200;2022-08-19T13:47:41;19.02;;;12.20;;
50056;SDS011;36875;49.468;11.200;2022-08-19T13:50:09;17.75;;;13.43;;
50056;SDS011;36875;49.468;11.200;2022-08-19T13:52:36;17.35;;;12.05;;
50056;SDS011;36875;49.468;11.200;2022-08-19T13:55:01;17.42;;;11.00;;
50056;SDS011;36875;49.468;11.200;2022-08-19T13:57:28;19.42;;;11.80;;
50056;SDS011;36875;49.468;11.200;2022-08-19T13:59:55;18.13;;;11.50;;
50056;SDS011;36875;49.468;11.200;2022-08-19T14:02:22;22.40;;;12.23;;
50056;SDS011;36875;49.468;11.200;2022-08-19T14:04:47;18.90;;;11.77;;
50056;SDS011;36875;49.468;11.200;2022-08-19T14:07:13;15.85;;;11.77;;
50056;SDS011;36875;49.468;11.200;2022-08-19T14:09:39;15.27;;;11.45;;
50056;SDS011;36875;49.468;11.200;2022-08-19T14:12:04;18.55;;;10.80;;
50056;SDS011;36875;49.468;11.200;2022-08-19T14:14:30;17.20;;;11.73;;
50056;SDS011;36875;49.468;11.200;2022-08-19T14:16:58;17.30;;;11.13;;